Time;durP1;ratioP1;P1;durP2;ratioP2;P2;SDS_P1;SDS_P2;PMS_P1;PMS_P2;Temp;Humidity;BMP_temperature;BMP_pressure;BME280_temperature;BME280_humidity;BME280_pressure;Samples;Min_cycle;Max_cycle;Signal;HPM_P1;HPM_P2
2023/10/25 00:00:29;;;;;;;1.75;1.65;;;;;;;;;;5053793;28;20031;-76
2023/10/25 00:02:55;;;;;;;1.60;1.50;;;;;;;;;;5053735;28;20053;-75
2023/10/25 00:05:21;;;;;;;2.50;2.30;;;;;;;;;;5053682;28;20028;-75
2023/10/25 00:07:48;;;;;;;1.83;1.73;;;;;;;;;;5044685;28;20126;-76
2023/10/25 00:10:14;;;;;;;1.77;1.67;;;;;;;;;;5045175;28;20033;-74
2023/10/25 00:12:40;;;;;;;1.60;1.48;;;;;;;;;;5038934;28;20378;-75
2023/10/25 00:15:06;;;;;;;1.27;1.20;;;;;;;;;;5033823;28;20033;-75
2023/10/25 00:17:32;;;;;;;1.33;1.23;;;;;;;;;;5039059;28;20435;-74
2023/10/25 00:19:58;;;;;;;1.60;1.50;;;;;;;;;;5052840;28;20025;-74
2023/10/25 00:22:24;;;;;;;1.55;1.45;;;;;;;;;;5055188;28;20037;-74
2023/10/25 00:24:50;;;;;;;1.65;1.55;;;;;;;;;;5054412;28;20028;-74
2023/10/25 00:27:16;;;;;;;1.90;1.73;;;;;;;;;;5052412;28;20095;-74
2023/10/25 00:29:42;;;;;;;1.70;1.60;;;;;;;;;;5053403;28;20073;-74
2023/10/25 00:32:14;;;;;;;1.80;1.70;;;;;;;;;;5054419;28;20467;-74
2023/10/25 00:34:40;;;;;;;2.00;1.88;;;;;;;;;;5054579;28;20455;-74
2023/10/25 00:37:06;;;;;;;1.70;1.60;;;;;;;;;;5053844;28;20495;-74
2023/10/25 00:39:32;;;;;;;2.15;2.05;;;;;;;;;;5051638;28;20025;-74
2023/10/25 00:41:58;;;;;;;1.88;1.77;;;;;;;;;;5053085;28;20402;-74
2023/10/25 00:44:25;;;;;;;1.40;1.30;;;;;;;;;;5052978;28;20121;-75
2023/10/25 00:46:51;;;;;;;1.02;1.02;;;;;;;;;;5052712;28;20086;-74
2023/10/25 00:49:17;;;;;;;1.05;1.05;;;;;;;;;;5040758;28;20030;-74
2023/10/25 00:51:43;;;;;;;1.40;1.30;;;;;;;;;;5031716;28;20022;-75
2023/10/25 00:54:10;;;;;;;1.52;1.42;;;;;;;;;;5032959;28;20033;-74
2023/10/25 00:56:37;;;;;;;1.35;1.25;;;;;;;;;;5042911;28;20021;-74
2023/10/25 00:59:04;;;;;;;1.50;1.40;;;;;;;;;;5053189;28;20040;-75
2023/10/25 01:01:30;;;;;;;1.20;1.20;;;;;;;;;;5053520;28;20107;-74
2023/10/25 01:03:56;;;;;;;1.67;1.45;;;;;;;;;;5059582;28;20032;-75
2023/10/25 01:06:23;;;;;;;1.90;1.80;;;;;;;;;;5070452;28;20028;-75
2023/10/25 01:08:50;;;;;;;1.60;1.50;;;;;;;;;;5051017;28;20025;-75
2023/10/25 01:11:16;;;;;;;2.53;2.20;;;;;;;;;;5033126;28;20499;-73
2023/10/25 01:13:42;;;;;;;1.58;1.48;;;;;;;;;;5033652;28;20075;-74
2023/10/25 01:16:08;;;;;;;1.60;1.50;;;;;;;;;;5032838;28;20030;-75
2023/10/25 01:18:34;;;;;;;1.83;1.42;;;;;;;;;;5034211;28;20079;-75
2023/10/25 01:21:00;;;;;;;1.50;1.40;;;;;;;;;;5049940;28;20446;-75
2023/10/25 01:23:26;;;;;;;2.05;1.90;;;;;;;;;;5057415;28;20074;-74
2023/10/25 01:25:52;;;;;;;1.73;1.63;;;;;;;;;;5057228;28;20025;-73
2023/10/25 01:28:18;;;;;;;1.58;1.40;;;;;;;;;;5055668;28;20044;-74
2023/10/25 01:30:44;;;;;;;2.42;2.22;;;;;;;;;;5056327;28;20025;-75
2023/10/25 01:33:10;;;;;;;1.88;1.77;;;;;;;;;;5056644;28;20032;-74
2023/10/25 01:35:36;;;;;;;2.58;1.70;;;;;;;;;;5056775;28;20025;-74
2023/10/25 01:38:03;;;;;;;1.95;1.55;;;;;;;;;;5057183;28;20029;-74
2023/10/25 01:40:29;;;;;;;3.22;2.30;;;;;;;;;;5048872;28;20029;-76
2023/10/25 01:42:55;;;;;;;1.98;1.70;;;;;;;;;;5037272;28;20472;-74
2023/10/25 01:45:24;;;;;;;1.40;1.30;;;;;;;;;;5037797;28;20104;-75
2023/10/25 01:47:51;;;;;;;0.90;0.90;;;;;;;;;;5039026;28;20029;-74
2023/10/25 01:50:17;;;;;;;1.15;1.10;;;;;;;;;;5040020;28;20029;-74
2023/10/25 01:52:43;;;;;;;1.67;0.90;;;;;;;;;;5051070;28;20026;-74
2023/10/25 01:55:09;;;;;;;0.90;0.90;;;;;;;;;;5050256;28;20044;-74
2023/10/25 01:57:35;;;;;;;0.80;0.80;;;;;;;;;;5075171;28;20089;-74
2023/10/25 02:00:03;;;;;;;0.90;0.70;;;;;;;;;;5070086;28;20083;-74
2023/10/25 02:02:29;;;;;;;0.80;0.80;;;;;;;;;;5074525;28;20021;-74
2023/10/25 02:04:55;;;;;;;0.80;0.80;;;;;;;;;;5066965;28;20029;-75
2023/10/25 02:07:21;;;;;;;1.00;1.00;;;;;;;;;;5055849;28;20032;-75
2023/10/25 02:09:47;;;;;;;1.05;0.95;;;;;;;;;;5056185;28;20043;-75
2023/10/25 02:12:13;;;;;;;0.55;0.55;;;;;;;;;;5055567;28;20094;-74
2023/10/25 02:14:39;;;;;;;0.50;0.50;;;;;;;;;;5055733;28;20029;-75
2023/10/25 02:17:05;;;;;;;0.70;0.70;;;;;;;;;;5056102;28;20413;-75
2023/10/25 02:19:32;;;;;;;0.30;0.28;;;;;;;;;;5036803;28;20103;-75
2023/10/25 02:21:59;;;;;;;0.50;0.50;;;;;;;;;;5035499;28;20116;-75
2023/10/25 02:24:25;;;;;;;0.40;0.40;;;;;;;;;;5035557;28;20029;-75
2023/10/25 02:26:51;;;;;;;0.30;0.30;;;;;;;;;;5047278;28;20104;-74
2023/10/25 02:29:17;;;;;;;0.25;0.25;;;;;;;;;;5054653;28;20026;-74
2023/10/25 02:31:43;;;;;;;0.38;0.38;;;;;;;;;;5055342;28;20392;-75
2023/10/25 02:34:09;;;;;;;0.47;0.47;;;;;;;;;;5055690;28;20131;-73
2023/10/25 02:36:35;;;;;;;0.30;0.30;;;;;;;;;;5055164;28;20036;-75
2023/10/25 02:39:02;;;;;;;0.20;0.20;;;;;;;;;;5053606;28;20460;-75
2023/10/25 02:41:28;;;;;;;0.20;0.20;;;;;;;;;;5056126;28;20159;-75
2023/10/25 02:43:54;;;;;;;0.20;0.20;;;;;;;;;;5056044;28;20037;-73
2023/10/25 02:46:21;;;;;;;0.32;0.32;;;;;;;;;;5053614;28;20105;-75
2023/10/25 02:48:47;;;;;;;0.25;0.25;;;;;;;;;;5052444;28;20017;-74
2023/10/25 02:51:13;;;;;;;0.20;0.20;;;;;;;;;;5035902;28;20060;-75
2023/10/25 02:53:39;;;;;;;0.20;0.20;;;;;;;;;;5035461;28;20036;-75
2023/10/25 02:56:06;;;;;;;0.20;0.20;;;;;;;;;;5040880;28;20028;-75
2023/10/25 02:58:32;;;;;;;0.30;0.30;;;;;;;;;;5054518;28;20021;-75
2023/10/25 03:00:59;;;;;;;0.10;0.10;;;;;;;;;;5055248;28;20119;-75
2023/10/25 03:03:28;;;;;;;0.10;0.10;;;;;;;;;;5054815;28;20073;-75
2023/10/25 03:05:54;;;;;;;0.30;0.30;;;;;;;;;;5054555;28;20094;-76
2023/10/25 03:08:21;;;;;;;0.35;0.35;;;;;;;;;;5055912;28;20252;-75
2023/10/25 03:10:47;;;;;;;0.32;0.30;;;;;;;;;;5050919;28;20025;-75
2023/10/25 03:13:13;;;;;;;0.38;0.30;;;;;;;;;;5038516;28;20033;-75
2023/10/25 03:15:39;;;;;;;0.30;0.30;;;;;;;;;;5035210;28;20022;-75
2023/10/25 03:18:05;;;;;;;0.45;0.20;;;;;;;;;;5037707;28;20021;-73
2023/10/25 03:20:32;;;;;;;0.50;0.50;;;;;;;;;;5047969;28;20039;-73
2023/10/25 03:22:59;;;;;;;0.50;0.50;;;;;;;;;;5054953;28;20033;-75
2023/10/25 03:25:25;;;;;;;0.50;0.45;;;;;;;;;;5055052;28;20569;-74
2023/10/25 03:27:51;;;;;;;0.98;0.40;;;;;;;;;;5053351;28;20035;-75
2023/10/25 03:30:17;;;;;;;1.55;0.55;;;;;;;;;;5054282;28;20101;-74
2023/10/25 03:32:44;;;;;;;0.40;0.40;;;;;;;;;;5058599;28;20021;-74
2023/10/25 03:35:10;;;;;;;0.43;0.40;;;;;;;;;;5071528;28;20028;-74
2023/10/25 03:37:39;;;;;;;0.50;0.50;;;;;;;;;;5071837;28;20025;-75
2023/10/25 03:40:09;;;;;;;0.82;0.50;;;;;;;;;;5063067;28;20072;-75
2023/10/25 03:42:35;;;;;;;0.30;0.30;;;;;;;;;;5054773;28;20025;-74
2023/10/25 03:45:02;;;;;;;0.52;0.52;;;;;;;;;;5054137;28;20465;-75
2023/10/25 03:47:28;;;;;;;0.20;0.20;;;;;;;;;;5055052;28;20025;-75
2023/10/25 03:49:54;;;;;;;0.40;0.35;;;;;;;;;;5054656;28;20048;-75
2023/10/25 03:52:21;;;;;;;0.30;0.30;;;;;;;;;;5037787;28;20025;-75
2023/10/25 03:54:47;;;;;;;0.30;0.30;;;;;;;;;;5035454;28;20021;-75
2023/10/25 03:57:13;;;;;;;0.40;0.40;;;;;;;;;;5054702;28;20507;-76
2023/10/25 03:59:39;;;;;;;0.30;0.30;;;;;;;;;;5054874;28;20021;-76
2023/10/25 04:02:05;;;;;;;0.50;0.40;;;;;;;;;;5054505;28;20039;-75
2023/10/25 04:04:31;;;;;;;0.30;0.30;;;;;;;;;;5054179;28;20097;-77
2023/10/25 04:06:57;;;;;;;0.65;0.50;;;;;;;;;;5054140;28;20456;-75
2023/10/25 04:09:23;;;;;;;0.45;0.32;;;;;;;;;;5061602;28;20017;-76
2023/10/25 04:11:50;;;;;;;0.50;0.47;;;;;;;;;;5049698;28;20061;-75
2023/10/25 04:14:16;;;;;;;0.63;0.40;;;;;;;;;;5033634;28;20017;-76
2023/10/25 04:16:42;;;;;;;0.40;0.40;;;;;;;;;;5033552;28;20466;-75
2023/10/25 04:19:08;;;;;;;1.45;0.43;;;;;;;;;;5033678;28;20049;-74
2023/10/25 04:21:34;;;;;;;0.60;0.45;;;;;;;;;;5036902;28;20095;-75
2023/10/25 04:24:01;;;;;;;0.38;0.38;;;;;;;;;;5042093;28;20358;-74
2023/10/25 04:26:28;;;;;;;0.30;0.30;;;;;;;;;;5044211;28;20013;-75
2023/10/25 04:28:54;;;;;;;0.40;0.40;;;;;;;;;;5042480;28;20025;-75
2023/10/25 04:31:23;;;;;;;0.40;0.40;;;;;;;;;;5052764;28;20036;-75
2023/10/25 04:33:49;;;;;;;0.93;0.52;;;;;;;;;;5053455;28;20503;-76
2023/10/25 04:36:16;;;;;;;0.32;0.32;;;;;;;;;;5053182;28;20064;-76
2023/10/25 04:38:42;;;;;;;0.45;0.45;;;;;;;;;;5053571;28;20021;-76
2023/10/25 04:41:08;;;;;;;0.80;0.50;;;;;;;;;;5053275;28;20025;-75
2023/10/25 04:43:34;;;;;;;0.30;0.30;;;;;;;;;;5047801;28;20171;-75
2023/10/25 04:46:00;;;;;;;0.30;0.30;;;;;;;;;;5051968;28;20108;-75
2023/10/25 04:48:27;;;;;;;0.22;0.22;;;;;;;;;;5051812;28;20021;-76
2023/10/25 04:50:53;;;;;;;0.35;0.35;;;;;;;;;;5053015;28;20017;-75
2023/10/25 04:53:19;;;;;;;0.38;0.38;;;;;;;;;;5052661;28;20094;-76
2023/10/25 04:55:46;;;;;;;0.20;0.20;;;;;;;;;;5052509;28;20029;-75
2023/10/25 04:58:12;;;;;;;0.40;0.38;;;;;;;;;;5053274;28;20024;-74
2023/10/25 05:00:38;;;;;;;0.22;0.22;;;;;;;;;;5054039;28;20021;-74
2023/10/25 05:03:11;;;;;;;0.40;0.30;;;;;;;;;;5052847;28;20490;-76
2023/10/25 05:05:37;;;;;;;;;;;;;;;;;;5053171;28;20108;-75
2023/10/25 05:08:03;;;;;;;0.75;0.20;;;;;;;;;;5053389;28;20358;-75
2023/10/25 05:10:30;;;;;;;0.20;0.20;;;;;;;;;;5054222;28;20024;-74
2023/10/25 05:12:56;;;;;;;0.30;0.30;;;;;;;;;;5053341;28;20021;-74
2023/10/25 05:15:24;;;;;;;0.30;0.30;;;;;;;;;;5065356;28;20029;-74
2023/10/25 05:17:51;;;;;;;0.60;0.30;;;;;;;;;;5058857;28;20100;-73
2023/10/25 05:20:17;;;;;;;0.40;0.38;;;;;;;;;;5052823;28;20052;-75
2023/10/25 05:22:45;;;;;;;0.30;0.30;;;;;;;;;;5052943;28;20072;-75
2023/10/25 05:25:11;;;;;;;0.32;0.28;;;;;;;;;;5052972;28;20036;-74
2023/10/25 05:27:38;;;;;;;0.30;0.30;;;;;;;;;;5052370;28;20017;-75
2023/10/25 05:30:05;;;;;;;1.15;0.40;;;;;;;;;;5052882;28;20100;-74
2023/10/25 05:32:32;;;;;;;0.68;0.50;;;;;;;;;;5053360;28;20528;-74
2023/10/25 05:34:59;;;;;;;0.40;0.40;;;;;;;;;;5053797;28;20052;-76
2023/10/25 05:37:25;;;;;;;0.60;0.60;;;;;;;;;;5055411;28;20018;-75
2023/10/25 05:39:52;;;;;;;0.57;0.57;;;;;;;;;;5053853;28;20037;-75
2023/10/25 05:42:19;;;;;;;0.50;0.50;;;;;;;;;;5055541;28;20492;-75
2023/10/25 05:44:46;;;;;;;0.43;0.43;;;;;;;;;;5049170;28;20053;-75
2023/10/25 05:47:12;;;;;;;0.50;0.50;;;;;;;;;;5033430;28;20037;-76
2023/10/25 05:49:38;;;;;;;0.60;0.60;;;;;;;;;;5036070;28;20029;-74
2023/10/25 05:52:05;;;;;;;0.73;0.73;;;;;;;;;;5035408;28;20030;-74
2023/10/25 05:54:31;;;;;;;0.57;0.57;;;;;;;;;;5035998;28;20085;-76
2023/10/25 05:56:57;;;;;;;0.50;0.50;;;;;;;;;;5054984;28;20029;-74
2023/10/25 05:59:24;;;;;;;0.30;0.30;;;;;;;;;;5052287;28;20033;-75
2023/10/25 06:01:51;;;;;;;0.47;0.47;;;;;;;;;;5053298;28;20032;-74
2023/10/25 06:04:19;;;;;;;0.85;0.82;;;;;;;;;;5053339;28;20399;-75
2023/10/25 06:06:46;;;;;;;0.73;0.73;;;;;;;;;;5041823;28;20158;-74
2023/10/25 06:09:13;;;;;;;0.65;0.65;;;;;;;;;;5053588;28;20025;-74
2023/10/25 06:11:39;;;;;;;0.38;0.38;;;;;;;;;;5045366;28;20087;-75
2023/10/25 06:14:09;;;;;;;0.50;0.50;;;;;;;;;;5038393;28;20069;-75
2023/10/25 06:16:35;;;;;;;0.40;0.40;;;;;;;;;;5037577;28;20037;-74
2023/10/25 06:19:01;;;;;;;0.40;0.40;;;;;;;;;;5038475;28;20033;-75
2023/10/25 06:21:27;;;;;;;0.75;0.75;;;;;;;;;;5037923;28;20102;-75
2023/10/25 06:23:53;;;;;;;0.63;0.63;;;;;;;;;;5038378;28;20032;-75
2023/10/25 06:26:20;;;;;;;0.50;0.50;;;;;;;;;;5044907;28;20039;-74
2023/10/25 06:28:46;;;;;;;0.57;0.57;;;;;;;;;;5057134;28;20071;-75
2023/10/25 06:31:15;;;;;;;0.40;0.40;;;;;;;;;;5041098;28;20041;-74
2023/10/25 06:33:41;;;;;;;0.47;0.47;;;;;;;;;;5036402;28;20025;-74
2023/10/25 06:36:08;;;;;;;0.50;0.50;;;;;;;;;;5036629;28;20052;-74
2023/10/25 06:38:34;;;;;;;0.40;0.40;;;;;;;;;;5035383;28;20369;-74
2023/10/25 06:41:00;;;;;;;0.50;0.50;;;;;;;;;;5045745;28;20361;-75
2023/10/25 06:43:29;;;;;;;0.38;0.38;;;;;;;;;;5056656;28;20028;-75
2023/10/25 06:45:55;;;;;;;0.45;0.45;;;;;;;;;;5055544;28;20024;-74
2023/10/25 06:48:21;;;;;;;0.75;0.75;;;;;;;;;;5048873;28;20040;-75
2023/10/25 06:50:48;;;;;;;0.88;0.88;;;;;;;;;;5051578;28;20020;-74
2023/10/25 06:53:14;;;;;;;0.90;0.90;;;;;;;;;;5055790;28;20028;-74
2023/10/25 06:55:40;;;;;;;1.00;1.00;;;;;;;;;;5070753;28;20433;-75
2023/10/25 06:58:06;;;;;;;0.73;0.73;;;;;;;;;;5055529;28;20037;-75
2023/10/25 07:00:33;;;;;;;0.60;0.60;;;;;;;;;;5055847;28;20101;-76
2023/10/25 07:03:02;;;;;;;0.60;0.60;;;;;;;;;;5050074;28;20089;-75
2023/10/25 07:05:29;;;;;;;0.60;0.60;;;;;;;;;;5042970;28;20103;-75
2023/10/25 07:07:56;;;;;;;0.50;0.50;;;;;;;;;;5045891;28;20034;-75
2023/10/25 07:10:22;;;;;;;1.23;0.70;;;;;;;;;;5036468;28;20086;-75
2023/10/25 07:12:48;;;;;;;0.32;0.32;;;;;;;;;;5040462;28;20342;-74
2023/10/25 07:15:15;;;;;;;0.50;0.50;;;;;;;;;;5046871;28;20018;-74
2023/10/25 07:17:49;;;;;;;0.60;0.60;;;;;;;;;;5050712;28;20116;-74
2023/10/25 07:20:15;;;;;;;0.60;0.60;;;;;;;;;;5039787;28;20028;-75
2023/10/25 07:22:42;;;;;;;0.50;0.50;;;;;;;;;;5038310;28;20384;-76
2023/10/25 07:25:08;;;;;;;0.50;0.50;;;;;;;;;;5038177;28;20036;-75
2023/10/25 07:27:37;;;;;;;0.30;0.30;;;;;;;;;;5073556;28;20017;-76
2023/10/25 07:30:04;;;;;;;0.30;0.30;;;;;;;;;;5078045;28;20017;-75
2023/10/25 07:32:31;;;;;;;0.30;0.30;;;;;;;;;;5077395;28;20024;-74
2023/10/25 07:34:57;;;;;;;0.30;0.30;;;;;;;;;;5077241;28;20379;-75
2023/10/25 07:37:24;;;;;;;0.40;0.40;;;;;;;;;;5076198;28;20069;-73
2023/10/25 07:39:50;;;;;;;0.20;0.20;;;;;;;;;;5076716;28;20082;-74
2023/10/25 07:42:16;;;;;;;0.15;0.15;;;;;;;;;;5056133;28;20092;-74
2023/10/25 07:44:42;;;;;;;0.40;0.38;;;;;;;;;;5035236;28;20080;-72
2023/10/25 07:47:08;;;;;;;0.17;0.17;;;;;;;;;;5035938;28;20030;-74
2023/10/25 07:49:37;;;;;;;0.43;0.43;;;;;;;;;;5036949;28;20029;-73
2023/10/25 07:52:04;;;;;;;0.32;0.30;;;;;;;;;;5035103;28;20144;-74
2023/10/25 07:54:30;;;;;;;0.40;0.40;;;;;;;;;;5034508;28;20049;-74
2023/10/25 07:56:56;;;;;;;0.30;0.20;;;;;;;;;;5046226;28;20029;-73
2023/10/25 07:59:22;;;;;;;0.40;0.40;;;;;;;;;;5059469;22;20041;-75
2023/10/25 08:01:49;;;;;;;0.50;0.50;;;;;;;;;;5041185;28;20025;-75
2023/10/25 08:04:15;;;;;;;0.40;0.40;;;;;;;;;;5020304;28;20186;-76
2023/10/25 08:06:43;;;;;;;0.50;0.50;;;;;;;;;;5032614;28;20548;-76
2023/10/25 08:09:09;;;;;;;0.73;0.73;;;;;;;;;;5014153;28;20060;-76
2023/10/25 08:11:37;;;;;;;0.45;0.45;;;;;;;;;;5026332;28;20022;-76
2023/10/25 08:14:03;;;;;;;0.30;0.30;;;;;;;;;;5032694;28;20451;-76
2023/10/25 08:16:29;;;;;;;0.50;0.50;;;;;;;;;;5015079;28;20111;-75
2023/10/25 08:18:55;;;;;;;0.43;0.40;;;;;;;;;;5032411;28;20026;-75
2023/10/25 08:21:21;;;;;;;0.45;0.45;;;;;;;;;;5032922;28;20361;-76
2023/10/25 08:23:51;;;;;;;0.60;0.60;;;;;;;;;;5033182;28;20364;-76
2023/10/25 08:26:18;;;;;;;0.85;0.60;;;;;;;;;;5032906;28;20064;-76
2023/10/25 08:28:44;;;;;;;0.57;0.57;;;;;;;;;;5032779;28;20385;-76
2023/10/25 08:31:14;;;;;;;0.50;0.50;;;;;;;;;;5015280;28;20403;-76
2023/10/25 08:33:40;;;;;;;0.40;0.40;;;;;;;;;;5033520;28;20423;-76
2023/10/25 08:36:07;;;;;;;0.30;0.28;;;;;;;;;;5031886;28;20024;-77
2023/10/25 08:38:33;;;;;;;0.68;0.68;;;;;;;;;;5029192;28;20493;-76
2023/10/25 08:41:05;;;;;;;0.50;0.50;;;;;;;;;;5016768;28;20027;-76
2023/10/25 08:43:35;;;;;;;0.98;0.50;;;;;;;;;;5021736;28;20029;-75
2023/10/25 08:46:03;;;;;;;0.93;0.60;;;;;;;;;;5030754;28;20044;-76
2023/10/25 08:48:29;;;;;;;1.25;0.65;;;;;;;;;;5031423;28;20127;-77
2023/10/25 08:50:56;;;;;;;0.70;0.70;;;;;;;;;;5032974;28;20426;-77
2023/10/25 08:53:25;;;;;;;0.80;0.60;;;;;;;;;;5032687;28;20026;-77
2023/10/25 08:55:55;;;;;;;0.90;0.70;;;;;;;;;;5032891;28;20387;-76
2023/10/25 08:58:23;;;;;;;1.63;0.68;;;;;;;;;;5029652;28;20392;-76
2023/10/25 09:00:51;;;;;;;0.57;0.57;;;;;;;;;;5016284;28;20029;-76
2023/10/25 09:03:32;;;;;;;0.98;0.70;;;;;;;;;;5034785;28;20108;-77
2023/10/25 09:06:02;;;;;;;0.85;0.50;;;;;;;;;;5034381;28;20029;-77
2023/10/25 09:08:28;;;;;;;0.38;0.38;;;;;;;;;;5013723;28;20181;-76
2023/10/25 09:11:01;;;;;;;0.52;0.50;;;;;;;;;;5014422;28;20021;-76
2023/10/25 09:13:27;;;;;;;0.45;0.45;;;;;;;;;;5013597;28;20472;-76
2023/10/25 09:16:02;;;;;;;0.40;0.40;;;;;;;;;;5013546;28;20449;-77
2023/10/25 09:18:29;;;;;;;0.30;0.30;;;;;;;;;;5013941;28;20029;-77
2023/10/25 09:20:55;;;;;;;0.40;0.40;;;;;;;;;;5033843;28;20002;-77
2023/10/25 09:23:21;;;;;;;0.32;0.32;;;;;;;;;;5016218;28;20047;-76
2023/10/25 09:25:49;;;;;;;0.47;0.40;;;;;;;;;;5033761;28;20021;-75
2023/10/25 09:28:19;;;;;;;0.50;0.47;;;;;;;;;;5042744;28;20060;-76
2023/10/25 09:30:45;;;;;;;0.30;0.30;;;;;;;;;;5038148;28;20032;-78
2023/10/25 09:33:11;;;;;;;0.20;0.20;;;;;;;;;;5015395;28;20037;-77
2023/10/25 09:35:37;;;;;;;0.40;0.40;;;;;;;;;;5013854;28;20025;-76
2023/10/25 09:38:03;;;;;;;0.28;0.28;;;;;;;;;;5013510;28;20034;-77
2023/10/25 09:40:30;;;;;;;0.28;0.28;;;;;;;;;;5023884;28;20040;-77
2023/10/25 09:42:59;;;;;;;0.20;0.20;;;;;;;;;;5035176;28;20048;-77
2023/10/25 09:45:29;;;;;;;0.20;0.20;;;;;;;;;;5037924;28;20427;-77
2023/10/25 09:48:00;;;;;;;0.30;0.30;;;;;;;;;;5019461;28;20029;-77
2023/10/25 09:50:32;;;;;;;0.32;0.32;;;;;;;;;;5030307;28;20040;-77
2023/10/25 09:53:09;;;;;;;0.40;0.40;;;;;;;;;;5017307;28;20476;-76
2023/10/25 09:55:35;;;;;;;0.40;0.30;;;;;;;;;;5019506;28;20092;-76
2023/10/25 09:58:02;;;;;;;0.30;0.30;;;;;;;;;;5034149;28;20032;-76
2023/10/25 10:00:29;;;;;;;0.30;0.30;;;;;;;;;;5028444;28;20033;-76
2023/10/25 10:03:00;;;;;;;0.50;0.40;;;;;;;;;;5015460;28;20157;-76
2023/10/25 10:05:26;;;;;;;0.30;0.30;;;;;;;;;;5017494;28;20129;-76
2023/10/25 10:08:03;;;;;;;0.43;0.28;;;;;;;;;;5016875;28;20018;-76
2023/10/25 10:10:32;;;;;;;0.20;0.20;;;;;;;;;;5019243;28;20057;-76
2023/10/25 10:12:58;;;;;;;0.40;0.30;;;;;;;;;;5022012;28;20038;-75
2023/10/25 10:15:43;;;;;;;0.20;0.20;;;;;;;;;;5017059;28;20026;-76
2023/10/25 10:18:10;;;;;;;0.10;0.10;;;;;;;;;;5016829;28;20053;-76
2023/10/25 10:20:36;;;;;;;0.35;0.28;;;;;;;;;;5016730;28;20048;-76
2023/10/25 10:23:07;;;;;;;0.30;0.30;;;;;;;;;;5017457;28;20078;-76
2023/10/25 10:25:43;;;;;;;0.10;0.10;;;;;;;;;;5018121;28;20511;-76
2023/10/25 10:28:09;;;;;;;0.22;0.22;;;;;;;;;;5043331;28;20053;-77
2023/10/25 10:30:35;;;;;;;0.20;0.20;;;;;;;;;;5049241;28;20033;-76
2023/10/25 10:33:02;;;;;;;0.30;0.30;;;;;;;;;;5035720;28;20026;-77
2023/10/25 10:35:28;;;;;;;0.20;0.20;;;;;;;;;;5018260;28;20032;-77
2023/10/25 10:37:55;;;;;;;0.30;0.30;;;;;;;;;;5035908;28;20025;-76
2023/10/25 10:40:21;;;;;;;0.20;0.20;;;;;;;;;;5033575;28;20121;-76
2023/10/25 10:42:47;;;;;;;0.20;0.20;;;;;;;;;;5014593;28;20022;-77
2023/10/25 10:45:15;;;;;;;0.10;0.10;;;;;;;;;;5028921;28;20433;-76
2023/10/25 10:47:44;;;;;;;0.20;0.20;;;;;;;;;;5047811;28;20079;-76
2023/10/25 10:50:13;;;;;;;0.10;0.10;;;;;;;;;;5057291;28;20088;-76
2023/10/25 10:52:43;;;;;;;0.17;0.17;;;;;;;;;;5038922;28;20399;-76
2023/10/25 10:55:10;;;;;;;0.10;0.10;;;;;;;;;;5036586;28;20395;-77
2023/10/25 10:57:37;;;;;;;0.20;0.20;;;;;;;;;;5036116;28;20116;-76
2023/10/25 11:00:04;;;;;;;0.55;0.55;;;;;;;;;;5034307;28;20037;-76
2023/10/25 11:02:30;;;;;;;0.38;0.20;;;;;;;;;;5042717;28;20026;-76
2023/10/25 11:04:56;;;;;;;0.35;0.30;;;;;;;;;;5035656;28;20037;-77
2023/10/25 11:07:22;;;;;;;0.30;0.30;;;;;;;;;;5037319;28;20084;-77
2023/10/25 11:09:48;;;;;;;0.40;0.30;;;;;;;;;;5037300;28;20385;-76
2023/10/25 11:12:14;;;;;;;0.55;0.40;;;;;;;;;;5037777;28;20028;-76
2023/10/25 11:14:44;;;;;;;0.20;0.20;;;;;;;;;;5041180;28;20045;-76
2023/10/25 11:17:11;;;;;;;0.32;0.32;;;;;;;;;;5035158;28;20169;-76
2023/10/25 11:19:37;;;;;;;0.90;0.30;;;;;;;;;;5051069;28;20083;-75
2023/10/25 11:22:03;;;;;;;0.20;0.20;;;;;;;;;;5049188;28;20036;-75
2023/10/25 11:24:30;;;;;;;0.30;0.30;;;;;;;;;;5048098;28;20029;-76
2023/10/25 11:26:56;;;;;;;0.30;0.30;;;;;;;;;;5046264;28;20106;-75
2023/10/25 11:29:23;;;;;;;1.55;0.30;;;;;;;;;;5048461;28;20036;-76
2023/10/25 11:31:55;;;;;;;0.30;0.30;;;;;;;;;;5044536;28;20029;-76
2023/10/25 11:34:21;;;;;;;2.03;0.30;;;;;;;;;;5018247;28;20017;-76
2023/10/25 11:36:47;;;;;;;0.10;0.10;;;;;;;;;;5015400;28;20030;-76
2023/10/25 11:39:14;;;;;;;1.00;0.40;;;;;;;;;;5016082;28;20133;-76
2023/10/25 11:41:40;;;;;;;1.55;0.50;;;;;;;;;;5015724;28;20025;-76
2023/10/25 11:44:09;;;;;;;0.20;0.20;;;;;;;;;;5031865;28;20029;-76
2023/10/25 11:46:36;;;;;;;0.32;0.32;;;;;;;;;;5036753;28;20164;-76
2023/10/25 11:49:03;;;;;;;0.30;0.30;;;;;;;;;;5035901;28;20021;-76
2023/10/25 11:51:29;;;;;;;1.00;0.30;;;;;;;;;;5015212;28;20021;-76
2023/10/25 11:53:55;;;;;;;0.32;0.30;;;;;;;;;;5047473;28;20032;-76
2023/10/25 11:56:22;;;;;;;0.40;0.40;;;;;;;;;;5045933;28;20089;-76
2023/10/25 11:58:51;;;;;;;0.30;0.30;;;;;;;;;;5046246;28;20033;-77
2023/10/25 12:01:18;;;;;;;0.73;0.47;;;;;;;;;;5054139;28;20013;-76
2023/10/25 12:03:44;;;;;;;0.30;0.30;;;;;;;;;;5042902;28;20037;-76
2023/10/25 12:06:11;;;;;;;0.30;0.30;;;;;;;;;;5043057;28;20037;-76
2023/10/25 12:08:38;;;;;;;0.30;0.30;;;;;;;;;;5053762;28;20356;-76
2023/10/25 12:11:05;;;;;;;1.45;0.30;;;;;;;;;;5054137;28;20040;-77
2023/10/25 12:13:31;;;;;;;0.50;0.50;;;;;;;;;;5032029;28;20129;-77
2023/10/25 12:15:57;;;;;;;0.32;0.32;;;;;;;;;;5013017;28;20022;-76
2023/10/25 12:18:23;;;;;;;0.52;0.40;;;;;;;;;;5013537;28;20104;-76
2023/10/25 12:20:49;;;;;;;0.30;0.30;;;;;;;;;;5013582;28;20109;-76
2023/10/25 12:23:16;;;;;;;0.22;0.22;;;;;;;;;;5015065;28;20026;-76
2023/10/25 12:25:42;;;;;;;0.28;0.20;;;;;;;;;;5031451;28;20105;-77
2023/10/25 12:28:08;;;;;;;0.32;0.32;;;;;;;;;;5027488;28;20032;-77
2023/10/25 12:30:34;;;;;;;0.30;0.30;;;;;;;;;;5036207;28;20104;-76
2023/10/25 12:33:00;;;;;;;0.20;0.20;;;;;;;;;;5054839;28;20028;-77
2023/10/25 12:35:27;;;;;;;0.30;0.30;;;;;;;;;;5054367;28;20032;-77
2023/10/25 12:37:53;;;;;;;0.35;0.35;;;;;;;;;;5048696;28;20029;-76
2023/10/25 12:40:19;;;;;;;0.30;0.30;;;;;;;;;;5017231;28;20021;-77
2023/10/25 12:42:45;;;;;;;0.20;0.20;;;;;;;;;;5034812;28;20480;-78
2023/10/25 12:45:11;;;;;;;0.30;0.30;;;;;;;;;;5027242;28;20471;-75
2023/10/25 12:47:38;;;;;;;0.30;0.30;;;;;;;;;;5011886;28;20449;-75
2023/10/25 12:50:09;;;;;;;0.30;0.30;;;;;;;;;;5032606;28;20025;-76
2023/10/25 12:52:35;;;;;;;0.25;0.25;;;;;;;;;;5035529;28;20387;-77
2023/10/25 12:55:01;;;;;;;0.20;0.20;;;;;;;;;;5012440;28;20049;-78
2023/10/25 12:57:28;;;;;;;0.60;0.40;;;;;;;;;;5025210;28;20032;-77
2023/10/25 12:59:54;;;;;;;0.40;0.20;;;;;;;;;;5056579;28;20051;-77
2023/10/25 13:02:20;;;;;;;0.38;0.38;;;;;;;;;;5055545;28;20038;-77
2023/10/25 13:04:46;;;;;;;0.20;0.20;;;;;;;;;;5053645;28;20437;-77
2023/10/25 13:07:12;;;;;;;0.20;0.20;;;;;;;;;;5035557;28;20124;-78
2023/10/25 13:09:39;;;;;;;0.22;0.22;;;;;;;;;;5036849;28;20080;-78
2023/10/25 13:12:07;;;;;;;0.25;0.25;;;;;;;;;;5035170;28;20017;-76
2023/10/25 13:14:33;;;;;;;0.30;0.30;;;;;;;;;;5033582;28;20487;-77
2023/10/25 13:16:59;;;;;;;0.30;0.30;;;;;;;;;;5033646;28;20109;-77
2023/10/25 13:19:29;;;;;;;0.30;0.30;;;;;;;;;;5037301;28;20029;-76
2023/10/25 13:21:55;;;;;;;0.30;0.30;;;;;;;;;;5037637;28;20021;-77
2023/10/25 13:24:21;;;;;;;0.20;0.20;;;;;;;;;;5038054;28;20076;-79
2023/10/25 13:26:47;;;;;;;0.22;0.20;;;;;;;;;;5037146;28;20029;-77
2023/10/25 13:29:13;;;;;;;0.20;0.20;;;;;;;;;;5037654;28;20551;-76
2023/10/25 13:31:39;;;;;;;0.17;0.17;;;;;;;;;;5037649;28;20025;-76
2023/10/25 13:34:06;;;;;;;0.35;0.35;;;;;;;;;;5037880;28;20324;-75
2023/10/25 13:36:32;;;;;;;0.20;0.20;;;;;;;;;;5036523;28;20025;-77
2023/10/25 13:38:58;;;;;;;0.22;0.20;;;;;;;;;;5019067;28;20022;-77
2023/10/25 13:41:24;;;;;;;0.20;0.20;;;;;;;;;;5037663;28;20021;-76
2023/10/25 13:43:50;;;;;;;0.20;0.20;;;;;;;;;;5031227;28;20389;-77
2023/10/25 13:46:17;;;;;;;0.20;0.20;;;;;;;;;;5019600;28;20416;-78
2023/10/25 13:48:43;;;;;;;0.35;0.30;;;;;;;;;;5019661;28;20021;-78
2023/10/25 13:51:09;;;;;;;0.17;0.17;;;;;;;;;;5020181;28;20075;-77
2023/10/25 13:53:35;;;;;;;0.68;0.30;;;;;;;;;;5021747;28;20063;-77
2023/10/25 13:56:02;;;;;;;0.60;0.40;;;;;;;;;;5037873;28;20049;-77
2023/10/25 13:58:31;;;;;;;0.40;0.40;;;;;;;;;;5035453;28;20030;-77
2023/10/25 14:01:01;;;;;;;0.40;0.40;;;;;;;;;;5036562;28;20026;-77
2023/10/25 14:03:27;;;;;;;0.30;0.30;;;;;;;;;;5023042;28;20030;-77
2023/10/25 14:05:53;;;;;;;0.20;0.20;;;;;;;;;;5017102;28;20045;-77
2023/10/25 14:08:20;;;;;;;0.30;0.30;;;;;;;;;;5018054;28;20061;-77
2023/10/25 14:10:49;;;;;;;0.20;0.20;;;;;;;;;;5018259;28;20151;-77
2023/10/25 14:13:15;;;;;;;0.20;0.20;;;;;;;;;;5027254;28;20104;-77
2023/10/25 14:15:43;;;;;;;0.55;0.30;;;;;;;;;;5038642;28;20385;-77
2023/10/25 14:18:11;;;;;;;0.22;0.22;;;;;;;;;;5020548;28;20025;-77
2023/10/25 14:20:38;;;;;;;0.28;0.28;;;;;;;;;;5037067;28;20520;-77
2023/10/25 14:23:04;;;;;;;0.43;0.40;;;;;;;;;;5034348;28;20030;-79
2023/10/25 14:25:31;;;;;;;0.40;0.40;;;;;;;;;;5026753;28;20021;-77
2023/10/25 14:27:57;;;;;;;0.47;0.38;;;;;;;;;;5041935;28;20036;-78
2023/10/25 14:30:23;;;;;;;0.55;0.50;;;;;;;;;;5038982;28;20026;-77
2023/10/25 14:32:49;;;;;;;1.38;0.52;;;;;;;;;;5040601;28;20336;-76
2023/10/25 14:35:15;;;;;;;0.47;0.38;;;;;;;;;;5020183;28;20109;-78
2023/10/25 14:37:41;;;;;;;0.75;0.40;;;;;;;;;;5020269;28;20097;-77
2023/10/25 14:40:07;;;;;;;0.40;0.40;;;;;;;;;;5019700;28;20037;-78